sensor_id;sensor_type;location;lat;lon;timestamp;pressure;altitude;pressure_sealevel;temperature;humidity
51147;BME280;37207;53.060;18.726;2023-11-19T00:00:08;101363.61;;;-0.70;95.38
51147;BME280;37207;53.060;18.726;2023-11-19T00:02:48;101368.04;;;-0.75;95.15
51147;BME280;37207;53.060;18.726;2023-11-19T00:05:14;101368.66;;;-0.78;95.34
51147;BME280;37207;53.060;18.726;2023-11-19T00:07:41;101364.92;;;-0.80;95.38
51147;BME280;37207;53.060;18.726;2023-11-19T00:10:12;101361.13;;;-0.83;95.50
51147;BME280;37207;53.060;18.726;2023-11-19T00:12:44;101359.98;;;-0.87;95.29
51147;BME280;37207;53.060;18.726;2023-11-19T00:15:11;101358.75;;;-0.89;95.52
51147;BME280;37207;53.060;18.726;2023-11-19T00:17:41;101363.63;;;-0.88;95.64
51147;BME280;37207;53.060;18.726;2023-11-19T00:20:14;101364.41;;;-0.88;95.73
51147;BME280;37207;53.060;18.726;2023-11-19T00:22:41;101366.04;;;-0.88;95.91
51147;BME280;37207;53.060;18.726;2023-11-19T00:25:09;101362.08;;;-0.87;95.80
51147;BME280;37207;53.060;18.726;2023-11-19T00:27:36;101351.60;;;-0.86;95.78
51147;BME280;37207;53.060;18.726;2023-11-19T00:30:06;101352.85;;;-0.88;95.44
51147;BME280;37207;53.060;18.726;2023-11-19T00:32:34;101348.83;;;-0.90;95.52
51147;BME280;37207;53.060;18.726;2023-11-19T00:35:01;101346.80;;;-0.92;95.75
51147;BME280;37207;53.060;18.726;2023-11-19T00:37:27;101351.08;;;-0.93;95.61
51147;BME280;37207;53.060;18.726;2023-11-19T00:39:54;101347.27;;;-0.94;95.67
51147;BME280;37207;53.060;18.726;2023-11-19T00:42:22;101347.89;;;-0.95;95.76
51147;BME280;37207;53.060;18.726;2023-11-19T00:44:51;101346.34;;;-0.96;95.74
51147;BME280;37207;53.060;18.726;2023-11-19T00:47:18;101346.88;;;-0.98;95.86
51147;BME280;37207;53.060;18.726;2023-11-19T00:49:47;101347.11;;;-1.00;95.65
51147;BME280;37207;53.060;18.726;2023-11-19T00:52:17;101344.16;;;-1.02;95.63
51147;BME280;37207;53.060;18.726;2023-11-19T00:54:45;101338.98;;;-1.03;95.90
51147;BME280;37207;53.060;18.726;2023-11-19T00:57:11;101331.92;;;-1.02;95.73
51147;BME280;37207;53.060;18.726;2023-11-19T00:59:41;101328.43;;;-1.02;96.03
51147;BME280;37207;53.060;18.726;2023-11-19T01:02:08;101322.34;;;-1.05;95.64
51147;BME280;37207;53.060;18.726;2023-11-19T01:04:35;101317.30;;;-1.08;95.44
51147;BME280;37207;53.060;18.726;2023-11-19T01:07:03;101307.15;;;-1.10;95.81
51147;BME280;37207;53.060;18.726;2023-11-19T01:09:32;101298.63;;;-1.12;95.81
51147;BME280;37207;53.060;18.726;2023-11-19T01:12:01;101295.83;;;-1.15;95.51
51147;BME280;37207;53.060;18.726;2023-11-19T01:14:28;101291.48;;;-1.17;95.64
51147;BME280;37207;53.060;18.726;2023-11-19T01:16:55;101287.09;;;-1.21;95.58
51147;BME280;37207;53.060;18.726;2023-11-19T01:19:22;101277.81;;;-1.25;95.63
51147;BME280;37207;53.060;18.726;2023-11-19T01:21:50;101275.78;;;-1.28;95.51
51147;BME280;37207;53.060;18.726;2023-11-19T01:24:17;101271.52;;;-1.31;95.57
51147;BME280;37207;53.060;18.726;2023-11-19T01:26:44;101270.66;;;-1.33;95.47
51147;BME280;37207;53.060;18.726;2023-11-19T01:29:14;101267.18;;;-1.34;95.70
51147;BME280;37207;53.060;18.726;2023-11-19T01:31:45;101267.80;;;-1.35;95.79
51147;BME280;37207;53.060;18.726;2023-11-19T01:34:13;101266.33;;;-1.37;95.84
51147;BME280;37207;53.060;18.726;2023-11-19T01:36:39;101262.70;;;-1.39;95.62
51147;BME280;37207;53.060;18.726;2023-11-19T01:39:06;101261.48;;;-1.41;95.70
51147;BME280;37207;53.060;18.726;2023-11-19T01:41:36;101261.62;;;-1.41;95.88
51147;BME280;37207;53.060;18.726;2023-11-19T01:44:03;101254.57;;;-1.43;95.83
51147;BME280;37207;53.060;18.726;2023-11-19T01:46:30;101260.99;;;-1.44;96.07
51147;BME280;37207;53.060;18.726;2023-11-19T01:48:59;101271.06;;;-1.45;95.93
51147;BME280;37207;53.060;18.726;2023-11-19T01:51:27;101270.98;;;-1.46;95.98
51147;BME280;37207;53.060;18.726;2023-11-19T01:53:55;101263.47;;;-1.47;96.37
51147;BME280;37207;53.060;18.726;2023-11-19T01:56:24;101261.07;;;-1.48;96.22
51147;BME280;37207;53.060;18.726;2023-11-19T01:58:53;101247.43;;;-1.51;96.19
51147;BME280;37207;53.060;18.726;2023-11-19T02:01:21;101235.90;;;-1.54;95.89
51147;BME280;37207;53.060;18.726;2023-11-19T02:03:48;101229.27;;;-1.56;96.10
51147;BME280;37207;53.060;18.726;2023-11-19T02:06:15;101217.11;;;-1.59;96.10
51147;BME280;37207;53.060;18.726;2023-11-19T02:08:42;101213.00;;;-1.61;96.41
51147;BME280;37207;53.060;18.726;2023-11-19T02:11:10;101202.09;;;-1.60;96.52
51147;BME280;37207;53.060;18.726;2023-11-19T02:13:38;101198.38;;;-1.59;96.70
51147;BME280;37207;53.060;18.726;2023-11-19T02:16:07;101192.02;;;-1.62;96.36
51147;BME280;37207;53.060;18.726;2023-11-19T02:18:37;101189.70;;;-1.64;96.42
51147;BME280;37207;53.060;18.726;2023-11-19T02:21:04;101183.73;;;-1.68;96.46
51147;BME280;37207;53.060;18.726;2023-11-19T02:23:31;101177.38;;;-1.69;96.64
51147;BME280;37207;53.060;18.726;2023-11-19T02:28:44;101154.86;;;-1.71;96.84
51147;BME280;37207;53.060;18.726;2023-11-19T02:31:11;101148.68;;;-1.72;96.75
51147;BME280;37207;53.060;18.726;2023-11-19T02:33:38;101150.14;;;-1.73;96.62
51147;BME280;37207;53.060;18.726;2023-11-19T02:36:06;101142.13;;;-1.74;96.62
51147;BME280;37207;53.060;18.726;2023-11-19T02:38:36;101129.58;;;-1.73;96.73
51147;BME280;37207;53.060;18.726;2023-11-19T02:41:04;101130.20;;;-1.74;96.72
51147;BME280;37207;53.060;18.726;2023-11-19T02:43:34;101136.08;;;-1.73;97.19
51147;BME280;37207;53.060;18.726;2023-11-19T02:46:05;101128.63;;;-1.73;96.94
51147;BME280;37207;53.060;18.726;2023-11-19T02:48:35;101123.52;;;-1.71;97.02
51147;BME280;37207;53.060;18.726;2023-11-19T02:51:03;101121.67;;;-1.70;97.12
51147;BME280;37207;53.060;18.726;2023-11-19T02:53:36;101117.41;;;-1.69;96.96
51147;BME280;37207;53.060;18.726;2023-11-19T02:56:06;101113.08;;;-1.68;97.21
51147;BME280;37207;53.060;18.726;2023-11-19T02:58:46;101110.36;;;-1.65;97.17
51147;BME280;37207;53.060;18.726;2023-11-19T03:01:13;101107.58;;;-1.62;97.47
51147;BME280;37207;53.060;18.726;2023-11-19T03:03:50;101102.94;;;-1.60;97.59
51147;BME280;37207;53.060;18.726;2023-11-19T03:06:23;101106.02;;;-1.56;97.21
51147;BME280;37207;53.060;18.726;2023-11-19T03:08:50;101101.66;;;-1.55;97.56
51147;BME280;37207;53.060;18.726;2023-11-19T03:11:16;101092.38;;;-1.52;97.36
51147;BME280;37207;53.060;18.726;2023-11-19T03:13:43;101090.98;;;-1.49;97.54
51147;BME280;37207;53.060;18.726;2023-11-19T03:16:10;101090.28;;;-1.45;97.32
51147;BME280;37207;53.060;18.726;2023-11-19T03:18:38;101083.31;;;-1.42;97.53
51147;BME280;37207;53.060;18.726;2023-11-19T03:21:08;101080.83;;;-1.42;97.65
51147;BME280;37207;53.060;18.726;2023-11-19T03:23:35;101075.55;;;-1.39;97.65
51147;BME280;37207;53.060;18.726;2023-11-19T03:26:02;101072.27;;;-1.37;97.63
51147;BME280;37207;53.060;18.726;2023-11-19T03:28:32;101064.38;;;-1.38;97.30
51147;BME280;37207;53.060;18.726;2023-11-19T03:30:58;101056.17;;;-1.37;97.46
51147;BME280;37207;53.060;18.726;2023-11-19T03:33:25;101051.05;;;-1.34;97.66
51147;BME280;37207;53.060;18.726;2023-11-19T03:35:54;101045.09;;;-1.32;97.83
51147;BME280;37207;53.060;18.726;2023-11-19T03:38:23;101038.42;;;-1.32;97.69
51147;BME280;37207;53.060;18.726;2023-11-19T03:40:51;101032.94;;;-1.32;97.62
51147;BME280;37207;53.060;18.726;2023-11-19T03:43:18;101032.46;;;-1.32;97.70
51147;BME280;37207;53.060;18.726;2023-11-19T03:45:45;101027.13;;;-1.32;97.51
51147;BME280;37207;53.060;18.726;2023-11-19T03:48:13;101019.15;;;-1.32;97.68
51147;BME280;37207;53.060;18.726;2023-11-19T03:50:42;101012.02;;;-1.31;97.90
51147;BME280;37207;53.060;18.726;2023-11-19T03:53:09;101009.16;;;-1.33;97.73
51147;BME280;37207;53.060;18.726;2023-11-19T03:55:36;101006.61;;;-1.33;97.83
51147;BME280;37207;53.060;18.726;2023-11-19T03:58:02;101002.73;;;-1.33;98.03
51147;BME280;37207;53.060;18.726;2023-11-19T04:00:29;101004.44;;;-1.31;98.13
51147;BME280;37207;53.060;18.726;2023-11-19T04:02:56;100994.29;;;-1.29;98.40
51147;BME280;37207;53.060;18.726;2023-11-19T04:05:22;100988.77;;;-1.26;98.50
51147;BME280;37207;53.060;18.726;2023-11-19T04:07:49;100983.34;;;-1.23;98.29
51147;BME280;37207;53.060;18.726;2023-11-19T04:10:15;100978.67;;;-1.21;98.40
51147;BME280;37207;53.060;18.726;2023-11-19T04:12:43;100966.64;;;-1.18;98.64
51147;BME280;37207;53.060;18.726;2023-11-19T04:15:11;100963.30;;;-1.16;98.63
51147;BME280;37207;53.060;18.726;2023-11-19T04:17:38;100961.20;;;-1.14;98.83
51147;BME280;37207;53.060;18.726;2023-11-19T04:20:05;100953.13;;;-1.10;98.84
51147;BME280;37207;53.060;18.726;2023-11-19T04:22:32;100948.77;;;-1.07;98.91
51147;BME280;37207;53.060;18.726;2023-11-19T04:24:59;100947.50;;;-1.03;98.81
51147;BME280;37207;53.060;18.726;2023-11-19T04:27:25;100947.23;;;-0.99;99.16
51147;BME280;37207;53.060;18.726;2023-11-19T04:29:52;100946.36;;;-0.96;98.95
51147;BME280;37207;53.060;18.726;2023-11-19T04:32:18;100937.75;;;-0.93;99.09
51147;BME280;37207;53.060;18.726;2023-11-19T04:34:45;100937.96;;;-0.89;99.10
51147;BME280;37207;53.060;18.726;2023-11-19T04:37:12;100936.08;;;-0.86;99.27
51147;BME280;37207;53.060;18.726;2023-11-19T04:39:38;100927.45;;;-0.84;99.00
51147;BME280;37207;53.060;18.726;2023-11-19T04:42:05;100916.27;;;-0.81;98.88
51147;BME280;37207;53.060;18.726;2023-11-19T04:44:32;100914.70;;;-0.79;99.07
51147;BME280;37207;53.060;18.726;2023-11-19T04:46:59;100915.63;;;-0.79;99.04
51147;BME280;37207;53.060;18.726;2023-11-19T04:49:26;100914.70;;;-0.78;98.99
51147;BME280;37207;53.060;18.726;2023-11-19T04:51:53;100908.95;;;-0.76;99.10
51147;BME280;37207;53.060;18.726;2023-11-19T04:54:20;100905.91;;;-0.74;99.15
51147;BME280;37207;53.060;18.726;2023-11-19T04:56:46;100902.27;;;-0.74;98.89
51147;BME280;37207;53.060;18.726;2023-11-19T04:59:16;100898.99;;;-0.72;99.09
51147;BME280;37207;53.060;18.726;2023-11-19T05:01:46;100895.59;;;-0.72;98.94
51147;BME280;37207;53.060;18.726;2023-11-19T05:04:14;100895.51;;;-0.72;98.97
51147;BME280;37207;53.060;18.726;2023-11-19T05:06:41;100892.15;;;-0.70;99.03
51147;BME280;37207;53.060;18.726;2023-11-19T05:09:07;100889.10;;;-0.68;99.10
51147;BME280;37207;53.060;18.726;2023-11-19T05:11:35;100881.18;;;-0.67;99.15
51147;BME280;37207;53.060;18.726;2023-11-19T05:14:03;100880.02;;;-0.66;99.25
51147;BME280;37207;53.060;18.726;2023-11-19T05:16:32;100880.55;;;-0.66;99.15
51147;BME280;37207;53.060;18.726;2023-11-19T05:18:59;100877.45;;;-0.65;98.96
51147;BME280;37207;53.060;18.726;2023-11-19T05:21:25;100871.93;;;-0.64;99.20
51147;BME280;37207;53.060;18.726;2023-11-19T05:23:52;100864.02;;;-0.62;99.23
51147;BME280;37207;53.060;18.726;2023-11-19T05:26:23;100855.55;;;-0.61;99.15
51147;BME280;37207;53.060;18.726;2023-11-19T05:28:50;100854.99;;;-0.59;99.35
51147;BME280;37207;53.060;18.726;2023-11-19T05:31:17;100842.67;;;-0.59;99.21
51147;BME280;37207;53.060;18.726;2023-11-19T05:33:44;100839.56;;;-0.58;99.24
51147;BME280;37207;53.060;18.726;2023-11-19T05:36:11;100827.15;;;-0.58;99.22
51147;BME280;37207;53.060;18.726;2023-11-19T05:38:39;100813.27;;;-0.57;99.16
51147;BME280;37207;53.060;18.726;2023-11-19T05:41:06;100806.98;;;-0.57;99.22
51147;BME280;37207;53.060;18.726;2023-11-19T05:43:33;100799.63;;;-0.57;99.29
51147;BME280;37207;53.060;18.726;2023-11-19T05:45:59;100797.14;;;-0.57;99.22
51147;BME280;37207;53.060;18.726;2023-11-19T05:48:27;100800.23;;;-0.55;99.26
51147;BME280;37207;53.060;18.726;2023-11-19T05:50:55;100799.92;;;-0.56;99.17
51147;BME280;37207;53.060;18.726;2023-11-19T05:53:22;100794.27;;;-0.55;99.21
51147;BME280;37207;53.060;18.726;2023-11-19T05:55:48;100783.72;;;-0.56;99.19
51147;BME280;37207;53.060;18.726;2023-11-19T05:58:23;100779.38;;;-0.56;99.07
51147;BME280;37207;53.060;18.726;2023-11-19T06:00:52;100780.63;;;-0.57;99.03
51147;BME280;37207;53.060;18.726;2023-11-19T06:03:18;100777.14;;;-0.57;98.83
51147;BME280;37207;53.060;18.726;2023-11-19T06:05:45;100780.16;;;-0.57;99.11
51147;BME280;37207;53.060;18.726;2023-11-19T06:08:12;100780.94;;;-0.56;99.07
51147;BME280;37207;53.060;18.726;2023-11-19T06:10:40;100785.65;;;-0.54;99.17
51147;BME280;37207;53.060;18.726;2023-11-19T06:13:07;100786.57;;;-0.53;99.10
51147;BME280;37207;53.060;18.726;2023-11-19T06:15:36;100790.67;;;-0.53;98.94
51147;BME280;37207;53.060;18.726;2023-11-19T06:18:03;100790.05;;;-0.53;98.88
51147;BME280;37207;53.060;18.726;2023-11-19T06:20:30;100788.56;;;-0.52;98.93
51147;BME280;37207;53.060;18.726;2023-11-19T06:22:58;100784.83;;;-0.52;98.75
51147;BME280;37207;53.060;18.726;2023-11-19T06:25:25;100778.08;;;-0.52;98.88
51147;BME280;37207;53.060;18.726;2023-11-19T06:27:52;100771.79;;;-0.51;98.78
51147;BME280;37207;53.060;18.726;2023-11-19T06:30:19;100769.27;;;-0.53;98.76
51147;BME280;37207;53.060;18.726;2023-11-19T06:32:46;100771.55;;;-0.56;98.66
51147;BME280;37207;53.060;18.726;2023-11-19T06:35:13;100771.05;;;-0.53;98.53
51147;BME280;37207;53.060;18.726;2023-11-19T06:37:41;100761.91;;;-0.53;98.68
51147;BME280;37207;53.060;18.726;2023-11-19T06:40:08;100757.27;;;-0.53;98.42
51147;BME280;37207;53.060;18.726;2023-11-19T06:42:35;100752.38;;;-0.54;98.55
51147;BME280;37207;53.060;18.726;2023-11-19T06:45:02;100748.59;;;-0.55;98.41
51147;BME280;37207;53.060;18.726;2023-11-19T06:47:30;100742.48;;;-0.55;98.41
51147;BME280;37207;53.060;18.726;2023-11-19T06:49:56;100738.35;;;-0.54;98.55
51147;BME280;37207;53.060;18.726;2023-11-19T06:52:23;100735.30;;;-0.53;98.58
51147;BME280;37207;53.060;18.726;2023-11-19T06:54:50;100730.50;;;-0.52;98.66
51147;BME280;37207;53.060;18.726;2023-11-19T06:57:16;100727.44;;;-0.51;98.63
51147;BME280;37207;53.060;18.726;2023-11-19T06:59:43;100718.44;;;-0.51;98.53
51147;BME280;37207;53.060;18.726;2023-11-19T07:02:10;100707.81;;;-0.50;98.56
51147;BME280;37207;53.060;18.726;2023-11-19T07:04:37;100704.16;;;-0.50;98.63
51147;BME280;37207;53.060;18.726;2023-11-19T07:07:03;100697.86;;;-0.48;98.68
51147;BME280;37207;53.060;18.726;2023-11-19T07:09:30;100684.73;;;-0.47;98.91
51147;BME280;37207;53.060;18.726;2023-11-19T07:11:56;100687.65;;;-0.43;98.71
51147;BME280;37207;53.060;18.726;2023-11-19T07:14:23;100682.96;;;-0.41;98.71
51147;BME280;37207;53.060;18.726;2023-11-19T07:16:50;100680.00;;;-0.39;98.73
51147;BME280;37207;53.060;18.726;2023-11-19T07:19:16;100675.86;;;-0.36;98.66
51147;BME280;37207;53.060;18.726;2023-11-19T07:21:43;100668.20;;;-0.34;98.55
51147;BME280;37207;53.060;18.726;2023-11-19T07:24:12;100669.11;;;-0.32;98.54
51147;BME280;37207;53.060;18.726;2023-11-19T07:26:43;100667.69;;;-0.30;98.60
51147;BME280;37207;53.060;18.726;2023-11-19T07:29:10;100664.40;;;-0.28;98.53
51147;BME280;37207;53.060;18.726;2023-11-19T07:31:37;100666.17;;;-0.27;98.56
51147;BME280;37207;53.060;18.726;2023-11-19T07:34:04;100660.18;;;-0.25;98.45
51147;BME280;37207;53.060;18.726;2023-11-19T07:36:32;100649.86;;;-0.25;98.31
51147;BME280;37207;53.060;18.726;2023-11-19T07:38:59;100650.94;;;-0.24;98.23
51147;BME280;37207;53.060;18.726;2023-11-19T07:41:25;100650.92;;;-0.23;98.09
51147;BME280;37207;53.060;18.726;2023-11-19T07:43:52;100648.65;;;-0.21;98.13
51147;BME280;37207;53.060;18.726;2023-11-19T07:46:19;100644.06;;;-0.16;98.28
51147;BME280;37207;53.060;18.726;2023-11-19T07:48:46;100645.27;;;-0.13;98.36
51147;BME280;37207;53.060;18.726;2023-11-19T07:51:16;100638.63;;;-0.10;98.24
51147;BME280;37207;53.060;18.726;2023-11-19T07:53:42;100637.80;;;-0.07;98.18
51147;BME280;37207;53.060;18.726;2023-11-19T07:56:09;100632.81;;;-0.05;98.09
51147;BME280;37207;53.060;18.726;2023-11-19T07:58:36;100630.73;;;-0.06;97.98
51147;BME280;37207;53.060;18.726;2023-11-19T08:01:03;100629.47;;;-0.05;97.93
51147;BME280;37207;53.060;18.726;2023-11-19T08:03:30;100626.74;;;-0.05;98.01
51147;BME280;37207;53.060;18.726;2023-11-19T08:05:57;100623.77;;;-0.03;97.94
51147;BME280;37207;53.060;18.726;2023-11-19T08:08:23;100623.30;;;-0.02;97.94
51147;BME280;37207;53.060;18.726;2023-11-19T08:10:50;100621.11;;;-0.01;97.84
51147;BME280;37207;53.060;18.726;2023-11-19T08:13:18;100617.92;;;-0.01;97.89
51147;BME280;37207;53.060;18.726;2023-11-19T08:15:45;100615.02;;;0.01;97.89
51147;BME280;37207;53.060;18.726;2023-11-19T08:18:12;100608.17;;;0.01;97.84
51147;BME280;37207;53.060;18.726;2023-11-19T08:20:39;100605.21;;;0.02;97.87
51147;BME280;37207;53.060;18.726;2023-11-19T08:23:07;100599.98;;;0.05;98.08
51147;BME280;37207;53.060;18.726;2023-11-19T08:25:34;100600.02;;;0.07;97.96
51147;BME280;37207;53.060;18.726;2023-11-19T08:28:01;100589.63;;;0.06;97.72
51147;BME280;37207;53.060;18.726;2023-11-19T08:30:30;100586.05;;;0.06;97.58
51147;BME280;37207;53.060;18.726;2023-11-19T08:32:56;100581.85;;;0.07;97.80
51147;BME280;37207;53.060;18.726;2023-11-19T08:35:23;100576.88;;;0.09;97.76
51147;BME280;37207;53.060;18.726;2023-11-19T08:37:50;100574.52;;;0.09;97.67
51147;BME280;37207;53.060;18.726;2023-11-19T08:40:17;100570.08;;;0.11;97.77
51147;BME280;37207;53.060;18.726;2023-11-19T08:42:43;100570.56;;;0.15;97.73
51147;BME280;37207;53.060;18.726;2023-11-19T08:45:10;100566.25;;;0.17;97.49
51147;BME280;37207;53.060;18.726;2023-11-19T08:47:39;100561.48;;;0.18;97.71
51147;BME280;37207;53.060;18.726;2023-11-19T08:50:07;100555.19;;;0.18;97.55
51147;BME280;37207;53.060;18.726;2023-11-19T08:52:34;100548.42;;;0.19;97.37
51147;BME280;37207;53.060;18.726;2023-11-19T08:55:01;100546.58;;;0.18;97.26
51147;BME280;37207;53.060;18.726;2023-11-19T08:57:29;100546.91;;;0.17;97.36
51147;BME280;37207;53.060;18.726;2023-11-19T08:59:55;100537.17;;;0.19;97.54
51147;BME280;37207;53.060;18.726;2023-11-19T09:02:22;100532.55;;;0.22;97.64
51147;BME280;37207;53.060;18.726;2023-11-19T09:04:48;100521.37;;;0.26;97.64
51147;BME280;37207;53.060;18.726;2023-11-19T09:07:15;100515.51;;;0.28;97.39
51147;BME280;37207;53.060;18.726;2023-11-19T09:09:41;100510.51;;;0.30;97.60
51147;BME280;37207;53.060;18.726;2023-11-19T09:12:08;100504.05;;;0.31;97.52
51147;BME280;37207;53.060;18.726;2023-11-19T09:14:34;100502.13;;;0.30;97.39
51147;BME280;37207;53.060;18.726;2023-11-19T09:17:01;100500.35;;;0.29;97.14
51147;BME280;37207;53.060;18.726;2023-11-19T09:19:27;100495.71;;;0.29;97.41
51147;BME280;37207;53.060;18.726;2023-11-19T09:21:54;100490.89;;;0.29;97.57
51147;BME280;37207;53.060;18.726;2023-11-19T09:24:20;100482.67;;;0.32;97.46
51147;BME280;37207;53.060;18.726;2023-11-19T09:26:47;100478.77;;;0.33;97.52
51147;BME280;37207;53.060;18.726;2023-11-19T09:29:14;100477.17;;;0.35;97.44
51147;BME280;37207;53.060;18.726;2023-11-19T09:31:40;100469.29;;;0.37;97.39
51147;BME280;37207;53.060;18.726;2023-11-19T09:34:07;100464.75;;;0.39;97.51
51147;BME280;37207;53.060;18.726;2023-11-19T09:36:34;100453.75;;;0.42;97.42
51147;BME280;37207;53.060;18.726;2023-11-19T09:39:00;100446.25;;;0.45;97.24
51147;BME280;37207;53.060;18.726;2023-11-19T09:41:30;100442.33;;;0.46;97.27
51147;BME280;37207;53.060;18.726;2023-11-19T09:43:56;100438.96;;;0.48;97.15
51147;BME280;37207;53.060;18.726;2023-11-19T09:46:23;100430.83;;;0.50;97.12
51147;BME280;37207;53.060;18.726;2023-11-19T09:48:53;100429.58;;;0.54;97.22
51147;BME280;37207;53.060;18.726;2023-11-19T09:51:23;100423.00;;;0.56;97.18
51147;BME280;37207;53.060;18.726;2023-11-19T09:53:49;100417.51;;;0.59;97.10
51147;BME280;37207;53.060;18.726;2023-11-19T09:56:16;100412.98;;;0.64;97.29
51147;BME280;37207;53.060;18.726;2023-11-19T09:58:43;100407.58;;;0.66;97.16
51147;BME280;37207;53.060;18.726;2023-11-19T10:01:10;100400.24;;;0.68;97.06
51147;BME280;37207;53.060;18.726;2023-11-19T10:03:39;100385.17;;;0.68;96.91
51147;BME280;37207;53.060;18.726;2023-11-19T10:06:07;100377.45;;;0.69;96.88
51147;BME280;37207;53.060;18.726;2023-11-19T10:08:39;100366.33;;;0.69;96.62
51147;BME280;37207;53.060;18.726;2023-11-19T10:11:06;100361.06;;;0.71;96.76
51147;BME280;37207;53.060;18.726;2023-11-19T10:13:36;100351.72;;;0.76;96.92
51147;BME280;37207;53.060;18.726;2023-11-19T10:16:11;100344.00;;;0.84;96.89
51147;BME280;37207;53.060;18.726;2023-11-19T10:18:44;100338.63;;;0.91;96.89
51147;BME280;37207;53.060;18.726;2023-11-19T10:21:14;100329.30;;;0.97;96.98
51147;BME280;37207;53.060;18.726;2023-11-19T10:23:53;100326.03;;;1.04;96.81
51147;BME280;37207;53.060;18.726;2023-11-19T10:26:21;100320.27;;;1.10;96.58
51147;BME280;37207;53.060;18.726;2023-11-19T10:28:48;100313.85;;;1.16;96.44
51147;BME280;37207;53.060;18.726;2023-11-19T10:31:16;100308.35;;;1.18;96.22
51147;BME280;37207;53.060;18.726;2023-11-19T10:33:44;100312.91;;;1.19;96.11
51147;BME280;37207;53.060;18.726;2023-11-19T10:36:12;100298.80;;;1.18;96.05
51147;BME280;37207;53.060;18.726;2023-11-19T10:38:39;100292.75;;;1.17;96.27
51147;BME280;37207;53.060;18.726;2023-11-19T10:41:07;100291.71;;;1.18;96.09
51147;BME280;37207;53.060;18.726;2023-11-19T10:43:43;100286.02;;;1.18;96.18
51147;BME280;37207;53.060;18.726;2023-11-19T10:46:14;100286.50;;;1.18;96.10
51147;BME280;37207;53.060;18.726;2023-11-19T10:48:41;100284.60;;;1.17;96.04
51147;BME280;37207;53.060;18.726;2023-11-19T10:51:08;100281.64;;;1.17;96.12
51147;BME280;37207;53.060;18.726;2023-11-19T10:53:38;100281.41;;;1.17;96.32
51147;BME280;37207;53.060;18.726;2023-11-19T10:56:10;100277.65;;;1.21;96.40
51147;BME280;37207;53.060;18.726;2023-11-19T10:58:44;100274.99;;;1.21;96.41
51147;BME280;37207;53.060;18.726;2023-11-19T11:01:16;100270.73;;;1.21;96.39
51147;BME280;37207;53.060;18.726;2023-11-19T11:03:45;100267.98;;;1.21;96.47
51147;BME280;37207;53.060;18.726;2023-11-19T11:06:16;100268.61;;;1.24;96.50
51147;BME280;37207;53.060;18.726;2023-11-19T11:08:43;100266.05;;;1.24;96.17
51147;BME280;37207;53.060;18.726;2023-11-19T11:11:15;100265.09;;;1.19;95.83
51147;BME280;37207;53.060;18.726;2023-11-19T11:13:44;100265.34;;;1.16;95.89
51147;BME280;37207;53.060;18.726;2023-11-19T11:16:12;100259.76;;;1.15;96.01
51147;BME280;37207;53.060;18.726;2023-11-19T11:18:39;100261.20;;;1.14;95.90
51147;BME280;37207;53.060;18.726;2023-11-19T11:21:10;100255.60;;;1.11;96.05
51147;BME280;37207;53.060;18.726;2023-11-19T11:32:37;100239.48;;;1.00;96.34
51147;BME280;37207;53.060;18.726;2023-11-19T11:35:50;100230.94;;;1.00;96.48
51147;BME280;37207;53.060;18.726;2023-11-19T11:38:22;100225.14;;;0.99;96.44
51147;BME280;37207;53.060;18.726;2023-11-19T11:41:22;100223.46;;;0.98;96.64
51147;BME280;37207;53.060;18.726;2023-11-19T11:43:50;100213.77;;;0.97;96.52
51147;BME280;37207;53.060;18.726;2023-11-19T11:49:01;100201.35;;;0.90;96.66
51147;BME280;37207;53.060;18.726;2023-11-19T11:57:09;100190.92;;;0.73;96.85
51147;BME280;37207;53.060;18.726;2023-11-19T11:59:56;100184.75;;;0.68;97.02
51147;BME280;37207;53.060;18.726;2023-11-19T12:02:25;100181.59;;;0.65;97.19
51147;BME280;37207;53.060;18.726;2023-11-19T12:04:52;100175.63;;;0.61;97.36
51147;BME280;37207;53.060;18.726;2023-11-19T12:07:22;100167.50;;;0.60;97.58
51147;BME280;37207;53.060;18.726;2023-11-19T12:09:56;100160.32;;;0.58;97.72
51147;BME280;37207;53.060;18.726;2023-11-19T12:12:33;100153.04;;;0.58;97.98
51147;BME280;37207;53.060;18.726;2023-11-19T12:15:06;100147.23;;;0.56;97.81
51147;BME280;37207;53.060;18.726;2023-11-19T12:17:40;100138.36;;;0.55;98.04
51147;BME280;37207;53.060;18.726;2023-11-19T12:20:11;100131.83;;;0.52;98.25
51147;BME280;37207;53.060;18.726;2023-11-19T12:25:50;100119.38;;;0.51;98.39
51147;BME280;37207;53.060;18.726;2023-11-19T12:28:17;100112.37;;;0.48;98.41
51147;BME280;37207;53.060;18.726;2023-11-19T12:30:46;100106.14;;;0.46;98.34
51147;BME280;37207;53.060;18.726;2023-11-19T12:33:16;100099.68;;;0.47;98.50
51147;BME280;37207;53.060;18.726;2023-11-19T12:35:48;100093.99;;;0.48;98.57
51147;BME280;37207;53.060;18.726;2023-11-19T12:38:22;100094.48;;;0.46;98.62
51147;BME280;37207;53.060;18.726;2023-11-19T12:41:03;100088.48;;;0.44;98.53
51147;BME280;37207;53.060;18.726;2023-11-19T12:43:30;100087.54;;;0.41;98.74
51147;BME280;37207;53.060;18.726;2023-11-19T12:45:57;100082.34;;;0.38;98.74
51147;BME280;37207;53.060;18.726;2023-11-19T12:48:27;100076.52;;;0.35;98.87
51147;BME280;37207;53.060;18.726;2023-11-19T12:50:58;100070.35;;;0.34;98.97
51147;BME280;37207;53.060;18.726;2023-11-19T12:53:50;100062.80;;;0.32;99.09
51147;BME280;37207;53.060;18.726;2023-11-19T12:56:20;100051.42;;;0.30;99.21
51147;BME280;37207;53.060;18.726;2023-11-19T12:58:54;100035.30;;;0.30;99.12
51147;BME280;37207;53.060;18.726;2023-11-19T13:01:22;100027.12;;;0.28;99.42
51147;BME280;37207;53.060;18.726;2023-11-19T13:03:49;100029.66;;;0.29;99.40
51147;BME280;37207;53.060;18.726;2023-11-19T13:06:17;100030.62;;;0.28;99.61
51147;BME280;37207;53.060;18.726;2023-11-19T13:08:47;100025.21;;;0.26;99.66
51147;BME280;37207;53.060;18.726;2023-11-19T13:11:34;100020.96;;;0.25;99.71